createdAt,value
2019-02-08T00:00:46.118Z,98.00
2019-02-08T00:03:49.829Z,98.00
2019-02-08T00:06:53.487Z,97.90
2019-02-08T00:09:57.205Z,98.90
2019-02-08T00:13:00.856Z,98.60
2019-02-08T00:16:04.568Z,98.40
2019-02-08T00:19:08.293Z,99.20
2019-02-08T00:22:12.009Z,99.00
2019-02-08T00:25:23.089Z,99.10
2019-02-08T00:28:26.743Z,98.90
2019-02-08T00:31:30.444Z,99.30
2019-02-08T00:34:34.118Z,98.50
2019-02-08T00:37:37.830Z,98.60
2019-02-08T00:40:41.538Z,98.90
2019-02-08T00:43:45.234Z,98.90
2019-02-08T00:46:48.931Z,98.90
2019-02-08T00:49:52.634Z,98.70
2019-02-08T00:52:56.335Z,98.60
2019-02-08T00:56:00.015Z,99.00
2019-02-08T00:59:03.723Z,97.80
2019-02-08T01:02:08.898Z,97.60
2019-02-08T01:05:20.821Z,97.00
2019-02-08T01:08:24.467Z,97.00
2019-02-08T01:11:28.179Z,97.00
2019-02-08T01:14:31.845Z,96.30
2019-02-08T01:17:35.534Z,96.70
2019-02-08T01:20:39.262Z,96.80
2019-02-08T01:23:42.924Z,96.20
2019-02-08T01:26:46.654Z,96.20
2019-02-08T01:29:50.394Z,96.80
2019-02-08T01:32:54.099Z,95.70
2019-02-08T01:35:57.835Z,95.70
2019-02-08T01:39:01.579Z,96.10
2019-02-08T01:42:05.239Z,96.00
2019-02-08T01:45:12.240Z,95.90
2019-02-08T01:48:15.936Z,95.80
2019-02-08T01:51:19.647Z,96.50
2019-02-08T01:54:23.319Z,96.60
2019-02-08T01:57:27.074Z,97.40
2019-02-08T02:00:35.592Z,97.50
2019-02-08T02:03:39.311Z,98.20
2019-02-08T02:06:43.015Z,97.90
2019-02-08T02:09:46.719Z,97.90
2019-02-08T02:12:50.474Z,97.20
2019-02-08T02:15:54.204Z,98.30
2019-02-08T02:18:57.868Z,97.80
2019-02-08T02:22:01.568Z,98.50
2019-02-08T02:25:08.053Z,98.30
2019-02-08T02:28:11.770Z,97.80
2019-02-08T02:31:15.434Z,98.20
2019-02-08T02:34:19.189Z,97.40
2019-02-08T02:37:22.824Z,97.50
2019-02-08T02:40:26.550Z,97.90
2019-02-08T02:43:30.405Z,98.00
2019-02-08T02:46:34.115Z,98.10
2019-02-08T02:49:37.838Z,98.30
2019-02-08T02:52:41.466Z,98.60
2019-02-08T02:55:45.233Z,98.90
2019-02-08T02:58:48.884Z,98.90
2019-02-08T03:01:52.611Z,98.70
2019-02-08T03:04:56.284Z,98.50
2019-02-08T03:07:59.999Z,98.50
2019-02-08T03:11:03.668Z,98.50
2019-02-08T03:14:07.409Z,98.50
2019-02-08T03:17:11.043Z,98.90
2019-02-08T03:20:17.880Z,98.80
2019-02-08T03:23:21.540Z,98.80
2019-02-08T03:26:25.331Z,98.50
2019-02-08T03:29:29.023Z,98.80
2019-02-08T03:32:32.740Z,99.20
2019-02-08T03:35:36.456Z,98.60
2019-02-08T03:38:40.164Z,98.00
2019-02-08T03:41:43.872Z,98.00
2019-02-08T03:44:47.557Z,98.60
2019-02-08T03:47:51.268Z,99.20
2019-02-08T03:50:54.918Z,98.50
2019-02-08T03:53:58.645Z,98.50
2019-02-08T03:57:02.312Z,98.80
2019-02-08T04:00:09.171Z,98.80
2019-02-08T04:03:12.829Z,98.70
2019-02-08T04:06:16.537Z,98.70
2019-02-08T04:09:20.274Z,99.20
2019-02-08T04:12:23.908Z,98.40
2019-02-08T04:15:27.632Z,98.70
2019-02-08T04:18:31.368Z,99.40
2019-02-08T04:21:35.036Z,99.20
2019-02-08T04:24:38.725Z,98.90
2019-02-08T04:27:42.444Z,98.40
2019-02-08T04:30:46.140Z,99.30
2019-02-08T04:33:49.849Z,98.60
2019-02-08T04:36:53.517Z,98.30
2019-02-08T04:39:57.241Z,98.10
2019-02-08T04:43:00.963Z,98.00
2019-02-08T04:46:04.653Z,98.80
2019-02-08T04:49:08.364Z,99.90
2019-02-08T04:52:12.070Z,99.30
2019-02-08T04:55:15.794Z,97.60
2019-02-08T04:58:19.505Z,98.10
2019-02-08T05:01:23.213Z,98.10
2019-02-08T05:04:26.952Z,97.70
2019-02-08T05:07:30.676Z,97.30
2019-02-08T05:10:34.951Z,96.70
2019-02-08T05:13:38.667Z,95.70
2019-02-08T05:16:42.404Z,96.50
2019-02-08T05:19:46.146Z,97.30
2019-02-08T05:22:49.872Z,97.00
2019-02-08T05:25:53.615Z,96.40
2019-02-08T05:28:59.596Z,96.40
2019-02-08T05:32:03.357Z,96.30
2019-02-08T05:35:08.834Z,96.10
2019-02-08T05:38:12.536Z,96.40
2019-02-08T05:41:16.211Z,97.10
2019-02-08T05:44:20.016Z,96.10
2019-02-08T05:47:23.699Z,95.90
2019-02-08T05:50:28.615Z,96.40
2019-02-08T05:53:32.317Z,96.70
2019-02-08T05:56:35.999Z,96.80
2019-02-08T05:59:39.699Z,96.60
2019-02-08T06:02:43.408Z,96.60
2019-02-08T06:05:47.618Z,96.80
2019-02-08T06:08:51.297Z,98.60
2019-02-08T06:11:55.000Z,97.80
2019-02-08T06:14:58.719Z,97.60
2019-02-08T06:18:02.392Z,97.60
2019-02-08T06:21:10.910Z,97.50
2019-02-08T06:24:17.979Z,97.40
2019-02-08T06:27:23.252Z,97.20
2019-02-08T06:30:30.897Z,97.10
2019-02-08T06:33:34.620Z,97.00
2019-02-08T06:36:38.340Z,96.90
2019-02-08T06:39:43.121Z,96.70
2019-02-08T06:42:46.929Z,96.40
2019-02-08T06:45:50.686Z,96.20
2019-02-08T06:48:54.376Z,95.70
2019-02-08T06:51:58.099Z,96.10
2019-02-08T06:55:01.823Z,96.30
2019-02-08T06:58:20.123Z,95.90
2019-02-08T07:01:37.322Z,95.40
2019-02-08T07:04:46.856Z,95.00
2019-02-08T07:08:08.272Z,94.40
2019-02-08T07:11:22.236Z,93.80
2019-02-08T07:14:44.656Z,95.20
2019-02-08T07:17:52.645Z,94.40
2019-02-08T07:20:57.936Z,93.60
2019-02-08T07:24:06.460Z,93.60
2019-02-08T07:27:17.669Z,92.40
2019-02-08T07:30:42.092Z,92.60
2019-02-08T07:33:47.356Z,92.70
2019-02-08T07:37:08.749Z,92.30
2019-02-08T07:40:25.589Z,91.70
2019-02-08T07:43:30.861Z,91.20
2019-02-08T07:46:36.109Z,91.00
2019-02-08T07:49:44.411Z,91.30
2019-02-08T07:52:49.686Z,91.30
2019-02-08T07:55:58.800Z,91.40
2019-02-08T07:59:05.385Z,91.20
2019-02-08T08:02:12.299Z,91.40
2019-02-08T08:05:26.039Z,91.00
2019-02-08T08:08:36.905Z,91.40
2019-02-08T08:12:00.574Z,92.10
2019-02-08T08:15:07.971Z,91.30
2019-02-08T08:18:30.921Z,91.00
2019-02-08T08:21:43.790Z,90.90
2019-02-08T08:24:53.075Z,89.80
2019-02-08T08:27:58.481Z,91.10
2019-02-08T08:31:05.979Z,90.90
2019-02-08T08:34:34.010Z,89.70
2019-02-08T08:38:15.426Z,90.70
2019-02-08T08:41:50.814Z,90.40
2019-02-08T08:45:00.404Z,91.40
2019-02-08T08:48:26.663Z,91.60
2019-02-08T08:51:36.071Z,90.90
2019-02-08T08:55:19.350Z,91.70
2019-02-08T08:58:43.920Z,91.70
2019-02-08T09:01:53.557Z,91.70
2019-02-08T09:05:03.332Z,92.30
2019-02-08T09:08:38.372Z,92.60
2019-02-08T09:12:01.988Z,92.50
2019-02-08T09:15:24.988Z,93.30
2019-02-08T09:19:04.055Z,93.70
2019-02-08T09:22:16.879Z,93.20
2019-02-08T09:25:38.730Z,92.60
2019-02-08T09:28:51.495Z,92.00
2019-02-08T09:32:31.634Z,92.70
2019-02-08T09:36:06.487Z,91.80
2019-02-08T09:39:38.513Z,91.00
2019-02-08T09:43:21.227Z,91.50
2019-02-08T09:46:51.538Z,91.60
2019-02-08T09:50:26.522Z,91.00
2019-02-08T09:53:35.979Z,90.60
2019-02-08T09:57:08.604Z,90.70
2019-02-08T10:00:37.107Z,91.70
2019-02-08T10:04:15.596Z,91.00
2019-02-08T10:07:31.215Z,91.10
2019-02-08T10:11:03.842Z,91.40
2019-02-08T10:14:37.657Z,91.20
2019-02-08T10:18:14.569Z,91.10
2019-02-08T10:21:42.054Z,90.60
2019-02-08T10:24:54.673Z,90.40
2019-02-08T10:28:23.000Z,91.20
2019-02-08T10:31:52.303Z,90.40
2019-02-08T10:35:17.013Z,90.30
2019-02-08T10:38:32.444Z,89.40
2019-02-08T10:41:58.935Z,90.20
2019-02-08T10:45:17.353Z,90.90
2019-02-08T10:48:39.239Z,90.60
2019-02-08T10:51:59.854Z,90.60
2019-02-08T10:55:23.153Z,90.30
2019-02-08T10:58:46.685Z,90.00
2019-02-08T11:02:19.286Z,90.00
2019-02-08T11:05:51.655Z,89.80
2019-02-08T11:09:22.610Z,88.80
2019-02-08T11:12:51.797Z,90.00
2019-02-08T11:16:19.665Z,89.10
2019-02-08T11:19:22.279Z,88.70
2019-02-08T11:22:26.031Z,88.10
2019-02-08T11:25:32.303Z,89.00
2019-02-08T11:28:36.028Z,88.30
2019-02-08T11:31:43.616Z,88.50
2019-02-08T11:34:48.840Z,89.20
2019-02-08T11:37:52.571Z,88.70
2019-02-08T11:40:56.334Z,88.60
2019-02-08T11:44:00.045Z,89.00
2019-02-08T11:47:03.719Z,87.50
2019-02-08T11:50:13.236Z,88.40
2019-02-08T11:53:16.962Z,89.00
2019-02-08T11:56:20.634Z,89.40
2019-02-08T11:59:24.409Z,88.20
2019-02-08T12:02:31.525Z,88.20
2019-02-08T12:05:35.196Z,87.30
2019-02-08T12:08:39.660Z,86.60
2019-02-08T12:11:44.312Z,87.20
2019-02-08T12:14:49.672Z,86.50
2019-02-08T12:17:54.970Z,84.70
2019-02-08T12:20:59.147Z,85.70
2019-02-08T12:24:02.795Z,86.60
2019-02-08T12:27:06.500Z,86.00
2019-02-08T12:30:25.570Z,86.30
2019-02-08T12:33:29.231Z,85.90
2019-02-08T12:36:34.637Z,86.40
2019-02-08T12:39:38.459Z,85.80
2019-02-08T12:42:42.141Z,86.30
2019-02-08T12:45:45.862Z,87.50
2019-02-08T12:48:49.571Z,88.10
2019-02-08T12:51:53.311Z,87.80
2019-02-08T12:54:57.035Z,88.20
2019-02-08T12:58:00.691Z,89.20
2019-02-08T13:01:04.415Z,88.30
2019-02-08T13:04:08.077Z,89.10
2019-02-08T13:07:11.772Z,87.30
2019-02-08T13:10:18.313Z,87.50
2019-02-08T13:13:22.002Z,87.90
2019-02-08T13:16:25.704Z,88.10
2019-02-08T13:19:29.410Z,88.10
2019-02-08T13:22:33.081Z,88.60
2019-02-08T13:25:36.799Z,88.10
2019-02-08T13:28:40.571Z,87.30
2019-02-08T13:31:44.294Z,86.90
2019-02-08T13:34:47.971Z,86.20
2019-02-08T13:37:51.680Z,86.40
2019-02-08T13:40:55.367Z,87.40
2019-02-08T13:43:59.220Z,87.10
2019-02-08T13:47:02.874Z,88.00
2019-02-08T13:50:12.419Z,86.50
2019-02-08T13:53:16.103Z,86.80
2019-02-08T13:56:19.818Z,87.10
2019-02-08T13:59:23.545Z,87.10
2019-02-08T14:02:27.197Z,87.20
2019-02-08T14:05:30.935Z,87.70
2019-02-08T14:08:34.675Z,88.10
2019-02-08T14:11:38.323Z,88.90
2019-02-08T14:14:42.047Z,88.70
2019-02-08T14:17:45.820Z,88.80
2019-02-08T14:20:49.496Z,88.90
2019-02-08T14:23:53.233Z,89.40
2019-02-08T14:26:56.890Z,89.80
2019-02-08T14:30:00.612Z,90.30
2019-02-08T14:33:04.281Z,90.50
2019-02-08T14:36:08.006Z,90.60
2019-02-08T14:39:11.703Z,91.00
2019-02-08T14:42:15.374Z,91.20
2019-02-08T14:45:19.057Z,91.80
2019-02-08T14:48:22.752Z,92.40
2019-02-08T14:51:26.400Z,92.80
2019-02-08T14:54:30.089Z,93.00
2019-02-08T14:57:33.790Z,93.30
2019-02-08T15:00:37.451Z,93.20
2019-02-08T15:03:41.184Z,93.40
2019-02-08T15:06:44.922Z,93.70
2019-02-08T15:09:48.555Z,94.10
2019-02-08T15:12:52.291Z,94.00
2019-02-08T15:15:55.939Z,94.10
2019-02-08T15:18:59.654Z,94.90
2019-02-08T15:22:03.309Z,95.50
2019-02-08T15:25:08.326Z,95.50
2019-02-08T15:28:12.053Z,96.50
2019-02-08T15:31:15.787Z,96.40
2019-02-08T15:34:19.478Z,96.40
2019-02-08T15:37:23.193Z,97.00
2019-02-08T15:40:42.131Z,98.10
2019-02-08T15:43:45.833Z,98.20
2019-02-08T15:46:49.492Z,98.50
2019-02-08T15:49:53.286Z,98.90
2019-02-08T15:52:56.997Z,99.60
2019-02-08T15:56:09.415Z,99.90
2019-02-08T15:59:13.079Z,99.90
2019-02-08T16:02:16.808Z,99.90
2019-02-08T16:05:22.354Z,99.90
2019-02-08T16:08:26.040Z,99.90
2019-02-08T16:11:30.749Z,99.90
2019-02-08T16:14:34.455Z,99.90
2019-02-08T16:17:38.162Z,99.90
2019-02-08T16:20:41.832Z,99.90
2019-02-08T16:23:45.574Z,99.90
2019-02-08T16:26:49.330Z,99.90
2019-02-08T16:29:53.073Z,99.90
2019-02-08T16:32:56.772Z,99.90
2019-02-08T16:36:00.454Z,99.90
2019-02-08T16:39:06.834Z,99.90
2019-02-08T16:42:10.554Z,99.90
2019-02-08T16:45:17.269Z,99.90
2019-02-08T16:48:20.998Z,99.90
2019-02-08T16:51:24.670Z,99.90
2019-02-08T16:54:28.374Z,99.90
2019-02-08T16:57:32.052Z,99.90
2019-02-08T17:00:41.595Z,99.90
2019-02-08T17:03:45.310Z,99.90
2019-02-08T17:06:49.010Z,99.90
2019-02-08T17:09:52.714Z,99.90
2019-02-08T17:12:56.539Z,99.90
2019-02-08T17:16:00.180Z,99.90
2019-02-08T17:19:03.896Z,99.90
2019-02-08T17:22:07.554Z,99.90
2019-02-08T17:25:11.384Z,99.90
2019-02-08T17:28:15.138Z,99.90
2019-02-08T17:31:18.790Z,99.90
2019-02-08T17:34:22.505Z,99.90
2019-02-08T17:37:26.189Z,99.90
2019-02-08T17:40:38.054Z,99.90
2019-02-08T17:43:41.747Z,99.90
2019-02-08T17:46:45.411Z,99.90
2019-02-08T17:49:49.360Z,99.90
2019-02-08T17:52:53.031Z,99.90
2019-02-08T17:55:56.761Z,99.90
2019-02-08T17:59:00.407Z,99.90
2019-02-08T18:02:04.138Z,99.90
2019-02-08T18:05:10.564Z,99.90
2019-02-08T18:08:14.216Z,99.90
2019-02-08T18:11:18.036Z,99.90
2019-02-08T18:14:21.711Z,99.90
2019-02-08T18:17:25.415Z,99.90
2019-02-08T18:20:35.274Z,99.90
2019-02-08T18:23:38.922Z,99.90
2019-02-08T18:26:42.642Z,99.90
2019-02-08T18:29:46.285Z,99.90
2019-02-08T18:32:50.010Z,99.90
2019-02-08T18:35:53.716Z,99.90
2019-02-08T18:38:57.445Z,99.90
2019-02-08T18:42:01.184Z,99.90
2019-02-08T18:45:07.049Z,99.90
2019-02-08T18:48:10.815Z,99.90
2019-02-08T18:51:14.516Z,99.90
2019-02-08T18:54:18.214Z,99.90
2019-02-08T18:57:23.467Z,99.90
2019-02-08T19:00:29.445Z,99.90
2019-02-08T19:03:33.174Z,99.90
2019-02-08T19:06:36.898Z,99.90
2019-02-08T19:09:40.581Z,99.90
2019-02-08T19:12:44.290Z,99.90
2019-02-08T19:15:47.990Z,99.90
2019-02-08T19:18:51.693Z,99.90
2019-02-08T19:21:55.470Z,99.90
2019-02-08T19:24:59.139Z,99.90
2019-02-08T19:28:02.863Z,99.90
2019-02-08T19:31:06.558Z,99.90
2019-02-08T19:34:10.296Z,99.90
2019-02-08T19:37:13.972Z,99.90
2019-02-08T19:40:23.354Z,99.90
2019-02-08T19:43:27.431Z,99.90
2019-02-08T19:46:31.196Z,99.90
2019-02-08T19:49:34.884Z,99.90
2019-02-08T19:52:38.593Z,99.90
2019-02-08T19:55:42.273Z,99.90
2019-02-08T19:58:46.018Z,99.90
2019-02-08T20:01:49.691Z,99.90
2019-02-08T20:04:53.421Z,99.90
2019-02-08T20:07:57.116Z,99.90
2019-02-08T20:11:00.822Z,99.90
2019-02-08T20:14:04.536Z,99.90
2019-02-08T20:17:08.201Z,99.90
2019-02-08T20:20:11.976Z,99.90
2019-02-08T20:23:15.725Z,99.90
2019-02-08T20:26:19.393Z,99.90
2019-02-08T20:29:23.110Z,99.90
2019-02-08T20:32:26.809Z,99.90
2019-02-08T20:35:30.474Z,99.90
2019-02-08T20:38:34.161Z,99.90
2019-02-08T20:41:37.861Z,99.90
2019-02-08T20:44:42.899Z,99.90
2019-02-08T20:47:46.681Z,99.90
2019-02-08T20:50:50.383Z,99.90
2019-02-08T20:53:54.110Z,99.90
2019-02-08T20:56:59.052Z,99.90
2019-02-08T21:00:04.764Z,99.90
2019-02-08T21:03:11.527Z,99.90
2019-02-08T21:06:15.374Z,99.90
2019-02-08T21:09:19.093Z,99.90
2019-02-08T21:12:22.769Z,99.90
2019-02-08T21:15:26.494Z,99.90
2019-02-08T21:18:30.235Z,99.90
2019-02-08T21:21:35.436Z,99.90
2019-02-08T21:24:39.209Z,99.90
2019-02-08T21:27:42.867Z,99.90
2019-02-08T21:30:47.974Z,99.90
2019-02-08T21:33:51.649Z,99.90
2019-02-08T21:36:55.295Z,99.90
2019-02-08T21:39:58.996Z,99.90
2019-02-08T21:43:02.672Z,99.90
2019-02-08T21:46:06.322Z,99.90
2019-02-08T21:49:10.054Z,99.90
2019-02-08T21:52:13.744Z,99.90
2019-02-08T21:55:19.029Z,99.90
2019-02-08T21:58:22.721Z,99.90
2019-02-08T22:01:26.393Z,99.90
2019-02-08T22:04:30.109Z,99.90
2019-02-08T22:07:33.764Z,99.90
2019-02-08T22:10:37.475Z,99.90
2019-02-08T22:13:41.207Z,99.90
2019-02-08T22:16:44.883Z,99.90
2019-02-08T22:19:48.577Z,99.90
2019-02-08T22:22:52.222Z,99.90
2019-02-08T22:25:55.935Z,99.90
2019-02-08T22:28:59.654Z,99.90
2019-02-08T22:32:03.380Z,99.90
2019-02-08T22:35:09.899Z,99.90
2019-02-08T22:38:13.555Z,99.90
2019-02-08T22:41:17.267Z,99.90
2019-02-08T22:44:20.989Z,99.90
2019-02-08T22:47:24.636Z,99.90
2019-02-08T22:50:28.586Z,99.90
2019-02-08T22:53:32.334Z,99.90
2019-02-08T22:56:36.019Z,99.90
2019-02-08T22:59:39.709Z,99.90
2019-02-08T23:02:43.435Z,99.90
2019-02-08T23:05:47.113Z,99.90
2019-02-08T23:08:50.833Z,99.90
2019-02-08T23:11:54.496Z,99.90
2019-02-08T23:14:58.225Z,99.90
2019-02-08T23:18:01.911Z,99.90
2019-02-08T23:21:05.616Z,99.90
2019-02-08T23:24:09.312Z,99.90
2019-02-08T23:27:13.425Z,99.90
2019-02-08T23:30:20.589Z,99.90
2019-02-08T23:33:24.239Z,99.90
2019-02-08T23:36:27.965Z,99.90
2019-02-08T23:39:31.669Z,99.90
2019-02-08T23:42:35.324Z,99.90
2019-02-08T23:45:39.031Z,99.90
2019-02-08T23:48:42.680Z,99.90
2019-02-08T23:51:46.350Z,99.90
2019-02-08T23:54:50.075Z,99.90
2019-02-08T23:57:53.755Z,99.90
